X  CloseMetar Aviation Weather Data     KBWI Baltimore / Washington International Thurgood Marshall

Temperature

81°F Temperature

66°F Dewpoint

62% Humidity



Wind

 8 MPH

13 KM/H

 4 M/S

 7 KTS



160°
South South
East
Current Conditions

Partly Cloudy Partly Cloudy
Pressure 1017.32 (hPa) - 30.04 (in)
Visibility 10 (mi) - 16.1 (km)
Airport
Airport-code KBWI

Location Baltimore / Washington International Thurgood Marshall 6 (mi)

Metar:
KBWI 160054Z 16007KT 10SM FEW200 BKN250 27/19 A3004 RMK AO2 SLP172 T02720189

Time: 15-07-2019 20:54